Time;durP1;ratioP1;P1;durP2;ratioP2;P2;SDS_P1;SDS_P2;PMS_P1;PMS_P2;Temp;Humidity;BMP_temperature;BMP_pressure;BME280_temperature;BME280_humidity;BME280_pressure;Samples;Min_cycle;Max_cycle;Signal;HPM_P1;HPM_P2
2023/04/15 00:00:37;;;;;;;4.63;3.13;;;12.60;1.00;;;;;;5017599;28;20200;-86
2023/04/15 00:03:04;;;;;;;6.00;3.37;;;12.80;1.00;;;;;;5021289;28;20178;-88
2023/04/15 00:05:32;;;;;;;5.87;4.00;;;12.70;1.00;;;;;;5026847;28;20570;-87
2023/04/15 00:08:00;;;;;;;8.13;4.60;;;12.80;1.00;;;;;;5020535;28;20238;-87
2023/04/15 00:10:26;;;;;;;5.07;4.03;;;12.70;1.00;;;;;;5017520;28;20215;-88
2023/04/15 00:12:52;;;;;;;5.90;4.47;;;12.80;1.00;;;;;;5017412;28;20232;-87
2023/04/15 00:15:18;;;;;;;5.63;4.00;;;12.80;1.00;;;;;;5019823;28;20253;-88
2023/04/15 00:17:48;;;;;;;7.13;3.60;;;12.80;1.00;;;;;;5020302;28;20567;-89
2023/04/15 00:20:14;;;;;;;6.33;4.20;;;12.80;1.00;;;;;;5033547;28;20636;-87
2023/04/15 00:22:40;;;;;;;8.57;4.50;;;12.90;1.00;;;;;;5017344;28;20216;-87
2023/04/15 00:25:12;;;;;;;8.07;4.07;;;12.70;1.00;;;;;;5024636;28;20186;-88
2023/04/15 00:27:37;;;;;;;5.87;3.90;;;12.70;1.00;;;;;;5019378;28;20223;-86
2023/04/15 00:30:04;;;;;;;5.97;3.83;;;12.70;1.00;;;;;;5035649;28;20181;-87
2023/04/15 00:32:30;;;;;;;6.80;3.90;;;12.70;1.00;;;;;;5016888;28;20250;-88
2023/04/15 00:34:56;;;;;;;6.60;4.40;;;12.70;1.00;;;;;;5018523;28;20206;-85
2023/04/15 00:37:25;;;;;;;4.73;3.30;;;12.70;1.00;;;;;;5035156;28;20170;-87
2023/04/15 00:39:50;;;;;;;5.43;3.80;;;12.80;1.00;;;;;;5038583;28;20181;-87
2023/04/15 00:42:20;;;;;;;4.60;3.77;;;12.70;1.00;;;;;;5025945;28;20673;-88
2023/04/15 00:44:46;;;;;;;5.53;3.97;;;12.50;1.00;;;;;;5019986;28;20200;-88
2023/04/15 00:47:12;;;;;;;4.83;2.63;;;12.20;1.00;;;;;;5037415;28;20215;-88
2023/04/15 00:49:41;;;;;;;4.83;3.00;;;12.20;1.00;;;;;;5026987;28;20186;-85
2023/04/15 00:52:07;;;;;;;4.40;2.87;;;12.30;1.00;;;;;;5038225;28;20186;-86
2023/04/15 00:54:33;;;;;;;3.83;2.60;;;12.30;1.00;;;;;;5039882;28;20185;-87
2023/04/15 00:56:59;;;;;;;4.83;3.03;;;12.40;1.00;;;;;;5040488;28;20182;-87
2023/04/15 00:59:44;;;;;;;4.97;3.07;;;12.10;1.00;;;;;;5038809;28;20261;-86
2023/04/15 01:02:13;;;;;;;4.73;3.17;;;12.10;1.00;;;;;;5029606;28;20182;-86
2023/04/15 01:04:42;;;;;;;4.57;3.13;;;11.90;1.00;;;;;;5045173;28;20638;-87
2023/04/15 01:07:08;;;;;;;4.37;3.20;;;11.70;1.00;;;;;;5018736;28;20630;-86
2023/04/15 01:09:34;;;;;;;4.60;3.20;;;11.90;1.00;;;;;;5018118;28;20174;-86
2023/04/15 01:11:59;;;;;;;5.23;3.00;;;12.10;1.00;;;;;;5017675;28;20720;-85
2023/04/15 01:14:26;;;;;;;4.67;2.70;;;12.10;1.00;;;;;;5017596;28;20268;-86
2023/04/15 01:16:54;;;;;;;5.07;2.90;;;11.90;1.00;;;;;;5018008;28;20294;-87
2023/04/15 01:19:20;;;;;;;4.70;3.10;;;11.80;1.00;;;;;;5016965;28;20239;-88
2023/04/15 01:21:46;;;;;;;4.53;2.87;;;11.90;1.00;;;;;;5017146;28;20547;-89
2023/04/15 01:24:15;;;;;;;6.80;3.20;;;12.10;1.00;;;;;;5050786;28;20224;-87
2023/04/15 01:26:41;;;;;;;4.37;3.30;;;12.10;1.00;;;;;;5036762;28;20293;-87
2023/04/15 01:29:08;;;;;;;6.23;3.50;;;12.20;1.00;;;;;;5028566;28;20186;-88
2023/04/15 01:31:37;;;;;;;6.60;3.07;;;12.20;1.00;;;;;;5017852;28;20232;-86
2023/04/15 01:34:05;;;;;;;4.80;3.47;;;12.30;1.00;;;;;;5017847;28;20209;-86
2023/04/15 01:36:31;;;;;;;4.37;3.00;;;12.30;1.00;;;;;;5017060;28;20186;-89
2023/04/15 01:38:57;;;;;;;4.70;2.80;;;12.20;1.00;;;;;;5021326;28;20177;-87
2023/04/15 01:41:27;;;;;;;3.80;2.47;;;12.20;1.00;;;;;;5036773;28;20186;-86
2023/04/15 01:43:54;;;;;;;4.47;2.37;;;12.30;1.00;;;;;;5039101;28;20170;-86
2023/04/15 01:46:20;;;;;;;3.70;2.70;;;12.20;1.00;;;;;;5034385;28;20643;-87
2023/04/15 01:48:47;;;;;;;3.90;2.47;;;12.40;1.00;;;;;;5020394;28;20230;-86
2023/04/15 01:51:13;;;;;;;3.77;2.70;;;12.30;1.00;;;;;;5021078;28;20185;-86
2023/04/15 01:53:39;;;;;;;3.67;2.60;;;12.30;1.00;;;;;;5023306;28;20193;-85
2023/04/15 01:56:07;;;;;;;4.57;2.40;;;12.30;1.00;;;;;;5028683;28;20193;-85
2023/04/15 01:58:33;;;;;;;5.47;2.30;;;12.10;1.00;;;;;;5031449;28;20186;-87
2023/04/15 02:01:01;;;;;;;5.10;2.73;;;12.30;1.00;;;;;;5022399;28;20530;-86
2023/04/15 02:03:28;;;;;;;4.87;2.43;;;12.00;1.00;;;;;;5020795;28;20177;-86
2023/04/15 02:05:54;;;;;;;3.73;2.60;;;11.80;1.00;;;;;;5020092;28;20182;-88
2023/04/15 02:08:19;;;;;;;3.50;2.67;;;11.70;1.00;;;;;;5019867;28;20240;-88
2023/04/15 02:10:45;;;;;;;4.60;2.40;;;11.60;1.00;;;;;;5020535;28;20264;-87
2023/04/15 02:13:11;;;;;;;3.30;2.50;;;11.60;1.00;;;;;;5020875;28;20553;-88
2023/04/15 02:15:36;;;;;;;4.77;3.00;;;11.70;1.00;;;;;;5020291;28;20244;-88
2023/04/15 02:18:03;;;;;;;4.97;2.60;;;11.90;1.00;;;;;;5028900;28;20181;-87
2023/04/15 02:20:32;;;;;;;4.83;2.70;;;12.00;1.00;;;;;;5036253;28;20213;-88
2023/04/15 02:23:00;;;;;;;3.70;2.67;;;12.00;1.00;;;;;;5025301;28;20181;-88
2023/04/15 02:25:27;;;;;;;3.33;2.40;;;12.00;1.00;;;;;;5020614;28;20188;-87
2023/04/15 02:27:53;;;;;;;4.60;2.60;;;12.10;1.00;;;;;;5020252;28;20735;-86
2023/04/15 02:30:18;;;;;;;5.17;2.47;;;12.20;1.00;;;;;;5020529;28;20185;-87
2023/04/15 02:32:47;;;;;;;3.33;2.50;;;12.10;1.00;;;;;;5019622;28;20666;-87
2023/04/15 02:35:13;;;;;;;3.30;2.33;;;11.90;1.00;;;;;;5019969;28;20178;-86
2023/04/15 02:37:44;;;;;;;3.87;2.57;;;11.60;1.00;;;;;;5019720;28;20650;-88
2023/04/15 02:40:11;;;;;;;4.63;2.43;;;11.60;1.00;;;;;;5020428;28;20180;-88
2023/04/15 02:42:41;;;;;;;3.57;2.53;;;11.60;1.00;;;;;;5041520;28;20214;-87
2023/04/15 02:45:07;;;;;;;5.13;2.70;;;11.50;1.00;;;;;;5029265;28;20204;-87
2023/04/15 02:47:42;;;;;;;3.87;2.30;;;11.30;1.00;;;;;;5018934;28;20275;-86
2023/04/15 02:50:10;;;;;;;4.30;2.90;;;11.20;6.30;;;;;;5019132;28;20184;-86
2023/04/15 02:52:35;;;;;;;4.13;2.60;;;11.40;6.80;;;;;;5019242;28;20189;-87
2023/04/15 02:55:04;;;;;;;4.33;2.73;;;11.30;7.00;;;;;;5024123;28;20174;-86
2023/04/15 02:57:29;;;;;;;6.03;3.40;;;11.40;4.80;;;;;;5025019;28;20186;-87
2023/04/15 02:59:55;;;;;;;8.87;5.67;;;11.40;3.80;;;;;;5019333;28;20255;-86
2023/04/15 03:02:23;;;;;;;8.57;4.53;;;11.40;5.50;;;;;;5017441;28;20204;-87
2023/04/15 03:04:49;;;;;;;10.87;6.10;;;11.60;5.60;;;;;;5018361;28;20197;-87
2023/04/15 03:07:17;;;;;;;10.93;6.07;;;11.20;11.00;;;;;;5018623;28;20217;-87
2023/04/15 03:09:42;;;;;;;11.27;5.60;;;10.90;12.50;;;;;;5018086;28;20192;-86
2023/04/15 03:12:08;;;;;;;12.63;7.43;;;11.00;15.50;;;;;;5018560;28;20213;-87
2023/04/15 03:14:34;;;;;;;12.23;7.80;;;10.80;22.70;;;;;;5020225;28;20182;-85
2023/04/15 03:17:00;;;;;;;11.13;7.53;;;10.80;24.10;;;;;;5029307;28;20209;-86
2023/04/15 03:19:26;;;;;;;14.67;8.60;;;10.90;23.50;;;;;;5049038;28;20177;-88
2023/04/15 03:21:52;;;;;;;14.00;8.10;;;10.90;22.90;;;;;;5003766;28;20277;-88
2023/04/15 03:24:23;;;;;;;12.47;8.03;;;10.60;31.00;;;;;;5027810;28;20226;-88
2023/04/15 03:26:49;;;;;;;15.43;8.67;;;10.40;35.30;;;;;;5023633;28;20221;-87
2023/04/15 03:29:15;;;;;;;12.83;8.97;;;10.50;41.70;;;;;;5033705;28;20182;-86
2023/04/15 03:31:41;;;;;;;14.90;9.27;;;10.50;46.70;;;;;;5030200;28;20182;-86
2023/04/15 03:34:07;;;;;;;18.70;9.80;;;10.40;50.80;;;;;;5031360;28;20185;-87
2023/04/15 03:36:32;;;;;;;19.70;11.00;;;10.40;56.70;;;;;;5023058;28;20177;-88
2023/04/15 03:38:58;;;;;;;21.53;11.53;;;10.40;58.70;;;;;;5035735;28;20188;-86
2023/04/15 03:41:24;;;;;;;16.57;10.23;;;10.50;57.50;;;;;;5039243;28;20174;-85
2023/04/15 03:43:51;;;;;;;14.33;9.03;;;10.40;54.50;;;;;;5041111;28;20169;-87
2023/04/15 03:46:20;;;;;;;14.73;9.87;;;10.10;55.90;;;;;;5028779;28;20193;-88
2023/04/15 03:48:48;;;;;;;15.37;9.33;;;10.10;59.90;;;;;;5035628;28;20245;-86
2023/04/15 03:51:36;;;;;;;11.33;8.30;;;10.00;64.10;;;;;;5041060;28;20204;-86
2023/04/15 03:54:02;;;;;;;14.93;9.10;;;9.90;68.70;;;;;;5039826;28;20192;-87
2023/04/15 03:56:33;;;;;;;14.30;9.27;;;9.90;74.70;;;;;;5021106;28;20178;-87
2023/04/15 03:59:00;;;;;;;11.30;8.00;;;9.90;75.50;;;;;;5021651;28;20185;-86
2023/04/15 04:01:27;;;;;;;13.60;8.60;;;9.90;76.70;;;;;;5020206;28;20181;-87
2023/04/15 04:03:52;;;;;;;12.03;7.73;;;9.90;77.20;;;;;;5020678;28;20174;-86
2023/04/15 04:06:19;;;;;;;12.23;7.93;;;9.90;78.20;;;;;;5030737;28;20169;-85
2023/04/15 04:08:45;;;;;;;10.53;7.53;;;9.90;73.00;;;;;;5040475;28;20237;-87
2023/04/15 04:11:13;;;;;;;12.17;7.60;;;9.80;71.00;;;;;;5039558;28;20182;-88
2023/04/15 04:13:45;;;;;;;11.17;7.77;;;9.80;68.70;;;;;;5024793;28;20248;-87
2023/04/15 04:16:11;;;;;;;14.93;8.03;;;9.80;67.90;;;;;;5024017;28;20249;-86
2023/04/15 04:18:37;;;;;;;9.70;7.17;;;9.70;71.80;;;;;;5023485;28;20182;-86
2023/04/15 04:21:05;;;;;;;11.93;8.37;;;9.70;71.70;;;;;;5025270;28;20185;-86
2023/04/15 04:23:30;;;;;;;13.17;7.93;;;9.70;69.40;;;;;;5028590;28;20181;-86
2023/04/15 04:25:56;;;;;;;13.43;8.53;;;9.70;71.80;;;;;;5016129;28;20268;-87
2023/04/15 04:28:22;;;;;;;12.67;9.00;;;9.70;76.70;;;;;;5032796;28;20228;-86
2023/04/15 04:30:47;;;;;;;13.77;8.13;;;9.80;80.70;;;;;;5034159;28;20201;-85
2023/04/15 04:33:20;;;;;;;10.63;8.00;;;9.70;77.30;;;;;;5031579;28;20181;-86
2023/04/15 04:35:46;;;;;;;11.20;6.93;;;9.70;72.40;;;;;;5020386;28;20569;-89
2023/04/15 04:38:12;;;;;;;10.00;7.17;;;9.60;63.90;;;;;;5022757;28;20174;-87
2023/04/15 04:40:38;;;;;;;9.97;7.67;;;9.70;62.40;;;;;;5019049;28;20213;-86
2023/04/15 04:43:03;;;;;;;14.33;7.73;;;9.50;57.10;;;;;;5018091;28;20235;-86
2023/04/15 04:45:29;;;;;;;11.37;7.90;;;9.70;58.80;;;;;;5016757;28;20576;-86
2023/04/15 04:47:56;;;;;;;11.37;7.73;;;9.80;58.80;;;;;;5017250;28;20224;-89
2023/04/15 04:50:21;;;;;;;11.10;7.27;;;9.80;58.50;;;;;;5017960;28;20314;-88
2023/04/15 04:52:47;;;;;;;9.00;5.60;;;9.70;46.50;;;;;;5017294;28;20633;-88
2023/04/15 04:55:13;;;;;;;11.13;6.43;;;9.80;44.70;;;;;;5020312;28;20201;-86
2023/04/15 04:57:38;;;;;;;12.60;6.90;;;9.80;39.30;;;;;;5018808;28;20197;-88
2023/04/15 05:00:07;;;;;;;8.60;5.93;;;9.70;45.80;;;;;;5021159;28;20614;-87
2023/04/15 05:02:33;;;;;;;12.60;6.60;;;9.80;41.20;;;;;;5020642;28;20269;-87
2023/04/15 05:05:00;;;;;;;10.50;6.10;;;9.80;42.90;;;;;;5020715;28;20201;-87
2023/04/15 05:07:27;;;;;;;9.20;5.47;;;9.90;45.60;;;;;;5020943;28;20300;-88
2023/04/15 05:09:53;;;;;;;9.50;5.97;;;9.90;35.10;;;;;;5035999;28;20181;-86
2023/04/15 05:12:20;;;;;;;14.03;6.33;;;10.00;35.60;;;;;;5018633;28;20603;-87
2023/04/15 05:14:45;;;;;;;11.87;5.43;;;10.10;35.00;;;;;;5022434;28;20181;-87
2023/04/15 05:17:15;;;;;;;8.33;5.50;;;10.20;30.90;;;;;;5020817;28;20202;-86
2023/04/15 05:19:47;;;;;;;9.27;5.30;;;10.30;27.70;;;;;;5022452;28;20186;-85
2023/04/15 05:22:15;;;;;;;8.87;5.60;;;10.20;22.50;;;;;;5038509;28;20185;-88
2023/04/15 05:24:42;;;;;;;9.27;5.10;;;10.20;24.50;;;;;;5029377;28;20213;-86
2023/04/15 05:27:11;;;;;;;9.97;5.63;;;10.20;18.40;;;;;;5034306;28;20200;-87
2023/04/15 05:29:37;;;;;;;9.07;5.43;;;10.30;13.00;;;;;;5016046;28;20185;-86
2023/04/15 05:32:04;;;;;;;10.67;5.10;;;10.30;12.30;;;;;;5022657;28;20195;-87
2023/04/15 05:34:31;;;;;;;9.90;5.37;;;10.10;15.30;;;;;;5032408;28;20196;-86
2023/04/15 05:36:58;;;;;;;11.27;5.87;;;10.10;21.60;;;;;;5055228;28;20212;-87
2023/04/15 05:39:24;;;;;;;9.63;5.80;;;10.20;22.10;;;;;;5022247;28;20186;-88
2023/04/15 05:41:50;;;;;;;10.53;5.90;;;10.10;19.00;;;;;;5020495;28;20188;-86
2023/04/15 05:44:15;;;;;;;9.07;5.67;;;10.30;23.10;;;;;;5020379;28;20186;-87
2023/04/15 05:46:46;;;;;;;8.57;5.30;;;10.20;15.70;;;;;;5019564;28;20217;-87
2023/04/15 05:49:12;;;;;;;11.97;6.10;;;10.30;17.60;;;;;;5019584;28;20190;-87
2023/04/15 05:51:38;;;;;;;9.63;6.30;;;10.40;19.50;;;;;;5019450;28;20192;-88
2023/04/15 05:54:06;;;;;;;7.60;5.50;;;10.30;23.30;;;;;;5019739;28;20189;-85
2023/04/15 05:56:39;;;;;;;9.40;6.30;;;10.30;19.80;;;;;;5040497;28;20165;-88
2023/04/15 05:59:06;;;;;;;8.43;6.37;;;10.10;22.80;;;;;;5007489;28;20185;-87
2023/04/15 06:01:34;;;;;;;9.93;5.90;;;10.10;27.30;;;;;;5027792;28;20177;-87
2023/04/15 06:04:01;;;;;;;10.50;5.90;;;10.30;26.30;;;;;;5024610;28;20545;-85
2023/04/15 06:06:27;;;;;;;9.93;5.57;;;10.40;25.90;;;;;;5013792;28;20296;-88
2023/04/15 06:08:54;;;;;;;10.03;6.43;;;10.30;25.20;;;;;;5021322;28;20228;-87
2023/04/15 06:11:23;;;;;;;10.03;6.40;;;10.10;29.30;;;;;;5020529;28;20182;-88
2023/04/15 06:13:49;;;;;;;12.23;6.93;;;9.90;31.00;;;;;;5022819;28;20186;-88
2023/04/15 06:16:15;;;;;;;11.50;6.30;;;9.80;34.00;;;;;;5058180;28;20250;-88
2023/04/15 06:18:45;;;;;;;8.97;6.23;;;9.80;31.90;;;;;;5041997;28;20182;-87
2023/04/15 06:21:14;;;;;;;11.37;6.30;;;9.90;31.60;;;;;;5036898;28;20182;-87
2023/04/15 06:23:43;;;;;;;7.80;5.93;;;9.80;24.30;;;;;;5031409;28;20223;-87
2023/04/15 06:26:10;;;;;;;8.43;6.53;;;9.90;23.50;;;;;;5040655;28;20207;-86
2023/04/15 06:28:36;;;;;;;11.47;6.23;;;10.00;22.80;;;;;;5041576;28;20236;-87
2023/04/15 06:31:03;;;;;;;8.23;5.97;;;10.20;19.30;;;;;;5041008;28;20174;-86
2023/04/15 06:33:28;;;;;;;11.47;7.07;;;10.40;14.50;;;;;;5042429;28;20192;-87
2023/04/15 06:36:03;;;;;;;11.37;6.67;;;10.40;13.00;;;;;;5040715;28;20170;-86
2023/04/15 06:38:32;;;;;;;11.63;7.33;;;10.60;12.50;;;;;;5035010;28;20223;-86
2023/04/15 06:40:57;;;;;;;12.90;7.00;;;10.70;10.40;;;;;;5039290;28;20178;-86
2023/04/15 06:43:23;;;;;;;11.20;5.80;;;10.60;12.50;;;;;;5029211;28;20439;-86
2023/04/15 06:45:58;;;;;;;9.60;6.13;;;10.50;10.40;;;;;;5022803;28;20197;-87
2023/04/15 06:48:24;;;;;;;14.07;6.63;;;10.20;9.50;;;;;;5020074;28;20248;-86
2023/04/15 06:50:49;;;;;;;11.67;6.27;;;10.30;15.40;;;;;;5019296;28;20216;-86
2023/04/15 06:53:15;;;;;;;11.77;6.23;;;10.30;19.30;;;;;;5019759;28;20189;-85
2023/04/15 06:55:41;;;;;;;9.80;6.30;;;10.30;10.60;;;;;;5019802;28;20236;-87
2023/04/15 06:58:07;;;;;;;9.03;5.80;;;10.30;4.10;;;;;;5019905;28;20538;-86
2023/04/15 07:00:33;;;;;;;11.20;6.40;;;10.30;3.80;;;;;;5019486;28;20637;-86
2023/04/15 07:03:02;;;;;;;10.27;6.63;;;10.30;7.70;;;;;;5018942;28;20653;-85
2023/04/15 07:05:29;;;;;;;9.03;6.27;;;10.50;6.60;;;;;;5018803;28;20792;-88
2023/04/15 07:07:56;;;;;;;10.40;5.93;;;10.40;2.60;;;;;;5020688;28;20252;-86
2023/04/15 07:10:22;;;;;;;9.63;6.70;;;10.70;1.00;;;;;;5022988;28;20174;-87
2023/04/15 07:12:49;;;;;;;11.40;6.80;;;10.70;1.00;;;;;;5021528;28;20543;-89
2023/04/15 07:15:16;;;;;;;12.30;6.63;;;10.70;1.00;;;;;;5026349;28;20173;-85
2023/04/15 07:17:42;;;;;;;9.00;6.37;;;10.80;1.00;;;;;;5024096;28;20237;-86
2023/04/15 07:20:09;;;;;;;10.70;6.40;;;10.90;1.00;;;;;;5019802;28;20181;-85
2023/04/15 07:22:36;;;;;;;9.80;6.50;;;10.90;1.00;;;;;;5019617;28;20185;-88
2023/04/15 07:25:01;;;;;;;13.80;6.70;;;11.00;1.00;;;;;;5019696;28;20637;-88
2023/04/15 07:27:27;;;;;;;9.57;6.47;;;11.00;1.00;;;;;;5033416;28;20255;-86
2023/04/15 07:29:53;;;;;;;10.57;6.10;;;11.20;1.00;;;;;;5023223;28;20189;-88
2023/04/15 07:32:19;;;;;;;9.00;6.53;;;11.20;1.00;;;;;;5020236;28;20661;-88
2023/04/15 07:34:45;;;;;;;9.23;6.27;;;11.20;1.00;;;;;;5019736;28;20200;-87
2023/04/15 07:37:12;;;;;;;11.43;6.77;;;11.20;1.00;;;;;;5019889;28;20221;-88
2023/04/15 07:39:38;;;;;;;10.27;6.77;;;11.30;1.00;;;;;;5018117;28;20547;-88
2023/04/15 07:42:03;;;;;;;9.67;6.90;;;11.40;1.00;;;;;;5021580;28;20188;-87
2023/04/15 07:44:33;;;;;;;9.87;6.73;;;11.30;1.00;;;;;;5021842;28;20184;-86
2023/04/15 07:47:03;;;;;;;11.03;7.33;;;11.30;1.00;;;;;;5026051;28;20300;-90
2023/04/15 07:49:28;;;;;;;10.50;7.07;;;11.20;1.00;;;;;;5033329;28;20174;-86
2023/04/15 07:51:56;;;;;;;9.17;7.23;;;11.10;1.00;;;;;;5032287;28;20661;-87
2023/04/15 07:54:25;;;;;;;9.40;6.53;;;11.20;1.00;;;;;;5033292;28;20170;-86
2023/04/15 07:56:52;;;;;;;12.33;7.43;;;11.10;1.00;;;;;;5026759;28;20185;-87
2023/04/15 07:59:22;;;;;;;9.60;7.60;;;11.00;1.00;;;;;;5023653;28;20646;-89
2023/04/15 08:01:49;;;;;;;10.30;7.60;;;10.90;1.00;;;;;;5021372;28;20228;-87
2023/04/15 08:04:14;;;;;;;12.43;9.03;;;11.00;1.00;;;;;;5024017;28;20206;-88
2023/04/15 08:06:41;;;;;;;10.90;8.53;;;11.00;1.00;;;;;;5047374;28;20221;-87
2023/04/15 08:09:07;;;;;;;14.07;9.60;;;11.10;1.00;;;;;;5036934;28;20722;-84
2023/04/15 08:11:36;;;;;;;14.57;9.47;;;11.10;1.00;;;;;;5026551;28;20185;-87
2023/04/15 08:14:02;;;;;;;14.40;9.10;;;11.10;1.00;;;;;;5037719;28;20225;-88
2023/04/15 08:16:32;;;;;;;14.33;9.33;;;11.10;1.00;;;;;;5020566;28;20238;-88
2023/04/15 08:18:58;;;;;;;17.40;10.17;;;11.30;1.00;;;;;;5018595;28;20224;-88
2023/04/15 08:21:24;;;;;;;12.13;9.30;;;11.40;1.00;;;;;;5018686;28;20185;-86
2023/04/15 08:23:52;;;;;;;11.50;9.10;;;11.50;1.00;;;;;;5035737;28;20169;-88
2023/04/15 08:26:21;;;;;;;12.67;9.70;;;11.50;1.00;;;;;;5017913;28;20678;-88
2023/04/15 08:28:50;;;;;;;11.90;9.87;;;11.50;1.00;;;;;;5018927;28;20204;-90
2023/04/15 08:31:17;;;;;;;14.27;9.80;;;11.60;1.00;;;;;;5037433;28;20251;-86
2023/04/15 08:33:43;;;;;;;11.73;9.03;;;11.70;1.00;;;;;;5022017;28;20263;-88
2023/04/15 08:36:31;;;;;;;12.10;9.67;;;11.80;1.00;;;;;;5021308;28;20197;-88
2023/04/15 08:38:57;;;;;;;12.07;9.50;;;11.80;1.00;;;;;;5025109;28;20188;-87
2023/04/15 08:41:24;;;;;;;13.60;9.37;;;11.80;1.00;;;;;;5038933;28;20257;-87
2023/04/15 08:44:00;;;;;;;15.03;10.03;;;11.90;1.00;;;;;;5036322;28;20193;-87
2023/04/15 08:46:26;;;;;;;13.10;9.03;;;11.90;1.00;;;;;;5021029;28;20205;-88
2023/04/15 08:48:58;;;;;;;11.77;9.33;;;11.80;1.00;;;;;;5020154;28;20618;-87
2023/04/15 08:51:25;;;;;;;14.83;10.20;;;11.90;1.00;;;;;;5019041;28;20169;-89
2023/04/15 08:53:51;;;;;;;16.27;10.40;;;12.00;1.00;;;;;;5019869;28;20213;-87
2023/04/15 08:56:19;;;;;;;12.53;11.10;;;12.10;1.00;;;;;;5028198;28;20173;-87
2023/04/15 08:58:46;;;;;;;12.10;9.83;;;12.10;1.00;;;;;;5036552;28;20194;-88
2023/04/15 09:01:12;;;;;;;14.50;10.80;;;12.30;1.00;;;;;;5036267;28;20193;-87
2023/04/15 09:03:39;;;;;;;12.13;10.50;;;12.40;1.00;;;;;;5033977;28;20184;-86
2023/04/15 09:06:07;;;;;;;13.47;9.47;;;12.40;1.00;;;;;;5032411;28;20208;-88
2023/04/15 09:08:34;;;;;;;13.00;9.13;;;12.50;1.00;;;;;;5030068;28;20228;-85
2023/04/15 09:11:02;;;;;;;13.20;10.27;;;12.50;1.00;;;;;;5041696;28;20182;-86
2023/04/15 09:13:30;;;;;;;11.60;9.30;;;12.70;1.00;;;;;;5024522;28;20257;-88
2023/04/15 09:15:57;;;;;;;13.73;10.10;;;12.70;1.00;;;;;;5042459;28;20185;-86
2023/04/15 09:18:36;;;;;;;14.10;9.77;;;12.90;1.00;;;;;;5021715;28;20201;-87
2023/04/15 09:21:22;;;;;;;16.23;10.53;;;13.10;1.00;;;;;;5030538;28;20179;-88
2023/04/15 09:24:01;;;;;;;12.57;9.03;;;13.40;1.00;;;;;;5023504;28;20276;-88
2023/04/15 09:26:34;;;;;;;11.47;9.73;;;13.50;1.00;;;;;;5022551;28;20189;-88
2023/04/15 09:29:18;;;;;;;12.43;9.30;;;13.60;1.00;;;;;;5040400;28;20198;-87
2023/04/15 09:31:44;;;;;;;11.73;8.77;;;13.70;1.00;;;;;;5031011;28;20176;-87
2023/04/15 09:34:10;;;;;;;10.80;8.43;;;14.00;1.00;;;;;;5033377;28;20208;-87
2023/04/15 09:36:56;;;;;;;12.17;7.43;;;14.10;1.00;;;;;;5022932;28;20204;-87
2023/04/15 09:39:22;;;;;;;8.80;6.77;;;14.30;1.00;;;;;;5022171;28;20188;-87
2023/04/15 09:42:04;;;;;;;7.07;5.50;;;14.40;1.00;;;;;;5020984;28;20715;-87
2023/04/15 09:44:30;;;;;;;8.63;5.57;;;14.40;99.90;;;;;;5022688;28;20198;-86
2023/04/15 09:46:56;;;;;;;7.77;5.33;;;14.60;99.90;;;;;;5022641;28;20684;-85
2023/04/15 09:49:22;;;;;;;7.53;5.03;;;14.50;99.90;;;;;;5022874;28;20197;-88
2023/04/15 09:51:49;;;;;;;8.97;4.20;;;14.50;99.90;;;;;;5021880;28;20181;-86
2023/04/15 09:54:21;;;;;;;5.17;4.47;;;14.50;1.00;;;;;;5022430;28;20185;-87
2023/04/15 09:56:50;;;;;;;5.47;4.60;;;14.60;1.00;;;;;;5032484;28;20177;-87
2023/04/15 09:59:16;;;;;;;7.43;5.20;;;14.70;1.00;;;;;;5031095;28;20188;-87
2023/04/15 10:01:44;;;;;;;7.57;5.67;;;14.70;99.90;;;;;;5023083;28;20177;-88
2023/04/15 10:04:10;;;;;;;7.97;5.93;;;14.80;99.90;;;;;;5021834;28;20193;-87
2023/04/15 10:06:41;;;;;;;7.37;6.00;;;14.90;99.90;;;;;;5022322;28;20272;-87
2023/04/15 10:09:09;;;;;;;9.00;5.47;;;14.90;99.90;;;;;;5022226;28;20668;-88
2023/04/15 10:11:35;;;;;;;8.70;5.90;;;14.80;99.90;;;;;;5021922;28;20181;-85
2023/04/15 10:14:02;;;;;;;8.67;5.90;;;14.60;99.90;;;;;;5022013;28;20195;-87
2023/04/15 10:16:31;;;;;;;7.17;5.50;;;14.60;99.90;;;;;;5022603;28;20201;-87
2023/04/15 10:19:00;;;;;;;9.43;6.23;;;14.60;99.90;;;;;;5023286;28;20591;-87
2023/04/15 10:21:27;;;;;;;9.30;6.33;;;14.50;99.90;;;;;;5022456;28;20271;-86
2023/04/15 10:23:54;;;;;;;8.70;6.43;;;14.60;99.90;;;;;;5027448;28;20190;-88
2023/04/15 10:26:20;;;;;;;6.57;5.87;;;14.80;99.90;;;;;;5026342;28;20661;-89
2023/04/15 10:28:47;;;;;;;7.20;5.33;;;14.70;99.90;;;;;;5022220;28;20213;-87
2023/04/15 10:31:16;;;;;;;7.17;5.10;;;14.90;99.90;;;;;;5020928;28;20189;-86
2023/04/15 10:33:43;;;;;;;6.27;5.17;;;14.90;99.90;;;;;;5021299;28;20283;-86
2023/04/15 10:36:11;;;;;;;7.87;5.37;;;14.80;1.00;;;;;;5004320;28;20336;-87
2023/04/15 10:38:40;;;;;;;6.70;4.50;;;14.80;1.00;;;;;;5023345;28;20173;-86
2023/04/15 10:41:20;;;;;;;7.43;4.20;;;14.90;1.00;;;;;;5021237;28;20182;-86
2023/04/15 10:43:53;;;;;;;7.73;5.17;;;14.90;99.90;;;;;;5052356;28;20189;-85
2023/04/15 10:46:42;;;;;;;7.33;4.57;;;14.90;1.00;;;;;;5035344;28;20201;-86
2023/04/15 10:49:24;;;;;;;8.00;5.03;;;14.90;1.00;;;;;;5042800;28;20192;-88
2023/04/15 10:51:57;;;;;;;6.40;3.80;;;14.90;74.10;;;;;;5024456;28;20185;-88
2023/04/15 10:54:26;;;;;;;4.93;3.40;;;15.00;1.00;;;;;;5022946;28;20197;-86
2023/04/15 10:57:07;;;;;;;5.17;2.60;;;15.00;1.00;;;;;;5031143;28;20197;-87
2023/04/15 10:59:59;;;;;;;5.70;2.90;;;14.90;99.90;;;;;;5021651;28;20247;-87
2023/04/15 11:02:51;;;;;;;4.47;3.07;;;14.90;1.00;;;;;;5021064;28;20271;-87
2023/04/15 11:05:18;;;;;;;6.33;2.50;;;14.90;99.90;;;;;;5020383;28;20185;-86
2023/04/15 11:07:53;;;;;;;4.00;2.60;;;15.00;3.40;;;;;;5024869;28;20224;-88
2023/04/15 11:10:25;;;;;;;3.33;2.47;;;14.90;1.00;;;;;;5011765;28;20654;-88
2023/04/15 11:12:55;;;;;;;3.53;2.20;;;14.90;1.00;;;;;;5032481;28;20181;-87
2023/04/15 11:15:37;;;;;;;3.90;2.80;;;14.90;1.00;;;;;;5034392;28;20287;-88
2023/04/15 11:18:12;;;;;;;5.20;2.73;;;15.10;99.90;;;;;;5025131;28;20241;-87
2023/04/15 11:20:40;;;;;;;6.80;3.20;;;15.30;1.00;;;;;;5024087;28;20301;-87
2023/04/15 11:23:07;;;;;;;4.77;2.83;;;15.20;99.90;;;;;;5026700;28;20178;-88
2023/04/15 11:25:33;;;;;;;4.73;3.40;;;15.30;1.00;;;;;;5028948;28;20236;-88
2023/04/15 11:28:01;;;;;;;6.27;3.80;;;15.40;1.00;;;;;;5028473;28;20221;-86
2023/04/15 11:30:31;;;;;;;5.20;3.70;;;15.30;99.90;;;;;;5032453;28;20166;-87
2023/04/15 11:33:07;;;;;;;5.33;3.50;;;15.40;1.00;;;;;;5040978;28;20170;-85
2023/04/15 11:35:39;;;;;;;6.60;4.00;;;15.20;1.00;;;;;;5032936;28;20265;-87
2023/04/15 11:38:12;;;;;;;4.00;2.60;;;15.20;1.00;;;;;;5029521;28;20291;-86
2023/04/15 11:40:44;;;;;;;4.27;3.20;;;15.20;99.90;;;;;;5033125;28;20273;-87
2023/04/15 11:43:26;;;;;;;5.83;2.80;;;15.30;1.00;;;;;;5023847;28;20189;-87
2023/04/15 11:45:56;;;;;;;4.10;2.10;;;15.20;1.90;;;;;;5021956;28;20275;-88
2023/04/15 11:48:30;;;;;;;2.47;1.67;;;15.20;99.90;;;;;;5027055;28;20226;-86
2023/04/15 11:50:59;;;;;;;2.67;2.03;;;15.20;1.00;;;;;;5051907;28;20196;-88
2023/04/15 11:53:50;;;;;;;4.67;2.33;;;15.30;99.90;;;;;;5023007;28;20217;-88
2023/04/15 11:56:19;;;;;;;6.27;2.80;;;15.40;99.90;;;;;;5038162;28;20204;-86
2023/04/15 11:58:49;;;;;;;6.10;3.50;;;15.40;1.00;;;;;;5019592;28;20232;-88
2023/04/15 12:01:41;;;;;;;4.20;3.20;;;15.40;1.00;;;;;;5018499;28;20205;-87
2023/04/15 12:04:19;;;;;;;3.20;2.10;;;15.40;99.90;;;;;;5018614;28;20656;-86
2023/04/15 12:06:44;;;;;;;3.40;2.10;;;15.50;1.00;;;;;;5021020;28;20272;-87
2023/04/15 12:09:16;;;;;;;5.00;2.40;;;15.70;99.90;;;;;;5018556;28;20213;-88
2023/04/15 12:11:44;;;;;;;3.90;2.23;;;15.60;99.90;;;;;;5017977;28;20185;-88
2023/04/15 12:14:25;;;;;;;4.63;2.40;;;15.60;79.40;;;;;;5019052;28;20228;-87
2023/04/15 12:16:53;;;;;;;3.70;2.93;;;15.50;1.00;;;;;;5019048;28;20742;-87
2023/04/15 12:19:24;;;;;;;3.73;2.70;;;15.70;34.20;;;;;;5019684;28;20291;-86
2023/04/15 12:21:58;;;;;;;4.57;2.73;;;15.60;98.80;;;;;;5019185;28;20178;-87
2023/04/15 12:24:33;;;;;;;5.20;3.30;;;15.60;78.30;;;;;;5023430;28;20192;-87
2023/04/15 12:27:08;;;;;;;3.43;2.43;;;15.70;99.90;;;;;;5037813;28;20252;-88
2023/04/15 12:29:37;;;;;;;3.97;2.10;;;15.70;99.90;;;;;;5030752;28;20227;-85
2023/04/15 12:32:11;;;;;;;3.80;2.40;;;15.50;99.90;;;;;;5024017;28;21021;-88
2023/04/15 12:34:41;;;;;;;3.90;2.77;;;15.50;99.90;;;;;;5022972;28;20185;-87
2023/04/15 12:37:09;;;;;;;4.73;2.70;;;15.40;99.90;;;;;;5033034;28;20185;-87
2023/04/15 12:39:37;;;;;;;4.00;2.27;;;15.40;99.90;;;;;;5027599;28;20208;-87
2023/04/15 12:42:04;;;;;;;5.67;2.67;;;15.60;99.90;;;;;;5021947;28;20728;-87
2023/04/15 12:44:35;;;;;;;4.40;2.00;;;15.70;99.90;;;;;;5019517;28;20190;-87
2023/04/15 12:47:00;;;;;;;3.30;2.27;;;15.60;1.00;;;;;;5018183;28;20213;-87
2023/04/15 12:49:27;;;;;;;3.27;1.97;;;15.60;6.50;;;;;;5018527;28;20181;-87
2023/04/15 12:51:55;;;;;;;4.20;2.20;;;15.70;1.00;;;;;;5029481;28;20184;-87
2023/04/15 12:54:22;;;;;;;3.13;2.30;;;15.80;1.00;;;;;;5020239;28;20213;-89
2023/04/15 12:56:49;;;;;;;4.13;2.23;;;15.90;4.10;;;;;;5020775;28;20256;-88